sensor_id;sensor_type;location;lat;lon;timestamp;pressure;altitude;pressure_sealevel;temperature
73265;BMP280;61493;51.008;14.088;2022-10-16T00:01:06;97632.28;;;13.66
73265;BMP280;61493;51.008;14.088;2022-10-16T00:03:35;97626.84;;;13.70
73265;BMP280;61493;51.008;14.088;2022-10-16T00:06:01;97623.09;;;13.67
73265;BMP280;61493;51.008;14.088;2022-10-16T00:08:27;97623.97;;;13.73
73265;BMP280;61493;51.008;14.088;2022-10-16T00:10:52;97633.03;;;13.67
73265;BMP280;61493;51.008;14.088;2022-10-16T00:13:17;97627.84;;;13.72
73265;BMP280;61493;51.008;14.088;2022-10-16T00:15:45;97628.63;;;13.63
73265;BMP280;61493;51.008;14.088;2022-10-16T00:18:11;97632.16;;;13.60
73265;BMP280;61493;51.008;14.088;2022-10-16T00:20:37;97628.56;;;13.54
73265;BMP280;61493;51.008;14.088;2022-10-16T00:23:04;97631.53;;;13.56
73265;BMP280;61493;51.008;14.088;2022-10-16T00:25:30;97639.84;;;13.49
73265;BMP280;61493;51.008;14.088;2022-10-16T00:27:58;97637.19;;;13.49
73265;BMP280;61493;51.008;14.088;2022-10-16T00:30:23;97641.03;;;13.48
73265;BMP280;61493;51.008;14.088;2022-10-16T00:32:49;97641.88;;;13.45
73265;BMP280;61493;51.008;14.088;2022-10-16T00:35:14;97639.69;;;13.44
73265;BMP280;61493;51.008;14.088;2022-10-16T00:37:42;97647.25;;;13.45
73265;BMP280;61493;51.008;14.088;2022-10-16T00:40:08;97636.72;;;13.51
73265;BMP280;61493;51.008;14.088;2022-10-16T00:42:34;97638.50;;;13.54
73265;BMP280;61493;51.008;14.088;2022-10-16T00:45:00;97634.66;;;13.46
73265;BMP280;61493;51.008;14.088;2022-10-16T00:47:26;97636.81;;;13.38
73265;BMP280;61493;51.008;14.088;2022-10-16T00:50:07;97640.13;;;13.42
73265;BMP280;61493;51.008;14.088;2022-10-16T00:52:33;97640.09;;;13.33
73265;BMP280;61493;51.008;14.088;2022-10-16T00:55:00;97647.25;;;13.36
73265;BMP280;61493;51.008;14.088;2022-10-16T00:57:26;97656.28;;;13.29
73265;BMP280;61493;51.008;14.088;2022-10-16T00:59:53;97653.44;;;13.33
73265;BMP280;61493;51.008;14.088;2022-10-16T01:02:18;97657.03;;;13.39
73265;BMP280;61493;51.008;14.088;2022-10-16T01:04:51;97661.06;;;13.44
73265;BMP280;61493;51.008;14.088;2022-10-16T01:10:07;97658.53;;;13.40
73265;BMP280;61493;51.008;14.088;2022-10-16T01:12:42;97660.31;;;13.43
73265;BMP280;61493;51.008;14.088;2022-10-16T01:15:18;97653.34;;;13.46
73265;BMP280;61493;51.008;14.088;2022-10-16T01:18:08;97655.59;;;13.47
73265;BMP280;61493;51.008;14.088;2022-10-16T01:20:59;97646.25;;;13.52
73265;BMP280;61493;51.008;14.088;2022-10-16T01:23:36;97653.22;;;13.49
73265;BMP280;61493;51.008;14.088;2022-10-16T01:29:19;97644.69;;;13.32
73265;BMP280;61493;51.008;14.088;2022-10-16T01:31:50;97653.03;;;13.35
73265;BMP280;61493;51.008;14.088;2022-10-16T01:34:22;97646.97;;;13.43
73265;BMP280;61493;51.008;14.088;2022-10-16T01:36:53;97649.34;;;13.41
73265;BMP280;61493;51.008;14.088;2022-10-16T01:39:23;97653.34;;;13.46
73265;BMP280;61493;51.008;14.088;2022-10-16T01:41:55;97649.22;;;13.54
73265;BMP280;61493;51.008;14.088;2022-10-16T01:44:29;97655.00;;;13.52
73265;BMP280;61493;51.008;14.088;2022-10-16T01:46:56;97659.75;;;13.57
73265;BMP280;61493;51.008;14.088;2022-10-16T01:49:25;97667.06;;;13.57
73265;BMP280;61493;51.008;14.088;2022-10-16T01:51:54;97661.84;;;13.62
73265;BMP280;61493;51.008;14.088;2022-10-16T01:54:22;97668.53;;;13.58
73265;BMP280;61493;51.008;14.088;2022-10-16T01:56:50;97668.72;;;13.63
73265;BMP280;61493;51.008;14.088;2022-10-16T01:59:19;97669.88;;;13.62
73265;BMP280;61493;51.008;14.088;2022-10-16T02:01:47;97666.03;;;13.73
73265;BMP280;61493;51.008;14.088;2022-10-16T02:04:30;97666.16;;;13.78
73265;BMP280;61493;51.008;14.088;2022-10-16T02:06:57;97668.41;;;13.89
73265;BMP280;61493;51.008;14.088;2022-10-16T02:09:23;97676.13;;;13.96
73265;BMP280;61493;51.008;14.088;2022-10-16T02:11:50;97669.94;;;13.99
73265;BMP280;61493;51.008;14.088;2022-10-16T02:14:17;97666.03;;;13.91
73265;BMP280;61493;51.008;14.088;2022-10-16T02:16:45;97674.06;;;13.91
73265;BMP280;61493;51.008;14.088;2022-10-16T02:19:13;97673.50;;;13.87
73265;BMP280;61493;51.008;14.088;2022-10-16T02:21:44;97675.88;;;13.94
73265;BMP280;61493;51.008;14.088;2022-10-16T02:26:52;97685.97;;;13.99
73265;BMP280;61493;51.008;14.088;2022-10-16T02:29:23;97684.91;;;13.96
73265;BMP280;61493;51.008;14.088;2022-10-16T02:31:53;97697.56;;;14.05
73265;BMP280;61493;51.008;14.088;2022-10-16T02:34:21;97696.22;;;14.10
73265;BMP280;61493;51.008;14.088;2022-10-16T02:36:48;97694.59;;;14.03
73265;BMP280;61493;51.008;14.088;2022-10-16T02:39:15;97694.31;;;14.10
73265;BMP280;61493;51.008;14.088;2022-10-16T02:41:41;97693.72;;;14.06
73265;BMP280;61493;51.008;14.088;2022-10-16T02:44:06;97692.22;;;14.14
73265;BMP280;61493;51.008;14.088;2022-10-16T02:46:32;97685.38;;;14.13
73265;BMP280;61493;51.008;14.088;2022-10-16T02:48:57;97686.88;;;14.14
73265;BMP280;61493;51.008;14.088;2022-10-16T02:51:22;97688.06;;;14.13
73265;BMP280;61493;51.008;14.088;2022-10-16T02:53:47;97690.56;;;14.08
73265;BMP280;61493;51.008;14.088;2022-10-16T02:56:13;97685.94;;;14.08
73265;BMP280;61493;51.008;14.088;2022-10-16T02:58:38;97691.03;;;14.15
73265;BMP280;61493;51.008;14.088;2022-10-16T03:01:04;97692.22;;;14.14
73265;BMP280;61493;51.008;14.088;2022-10-16T03:03:29;97686.56;;;14.12
73265;BMP280;61493;51.008;14.088;2022-10-16T03:05:54;97689.25;;;14.12
73265;BMP280;61493;51.008;14.088;2022-10-16T03:08:20;97685.97;;;14.17
73265;BMP280;61493;51.008;14.088;2022-10-16T03:10:49;97688.94;;;14.19
73265;BMP280;61493;51.008;14.088;2022-10-16T03:13:14;97684.50;;;14.16
73265;BMP280;61493;51.008;14.088;2022-10-16T03:15:40;97684.03;;;14.18
73265;BMP280;61493;51.008;14.088;2022-10-16T03:18:05;97674.69;;;14.13
73265;BMP280;61493;51.008;14.088;2022-10-16T03:20:30;97677.06;;;14.20
73265;BMP280;61493;51.008;14.088;2022-10-16T03:22:55;97682.41;;;14.11
73265;BMP280;61493;51.008;14.088;2022-10-16T03:25:21;97683.91;;;14.12
73265;BMP280;61493;51.008;14.088;2022-10-16T03:27:46;97689.09;;;14.07
73265;BMP280;61493;51.008;14.088;2022-10-16T03:30:12;97695.78;;;13.93
73265;BMP280;61493;51.008;14.088;2022-10-16T03:32:40;97694.09;;;13.77
73265;BMP280;61493;51.008;14.088;2022-10-16T03:35:08;97703.28;;;13.67
73265;BMP280;61493;51.008;14.088;2022-10-16T03:37:34;97704.91;;;13.64
73265;BMP280;61493;51.008;14.088;2022-10-16T03:40:03;97702.59;;;13.76
73265;BMP280;61493;51.008;14.088;2022-10-16T03:42:28;97701.53;;;13.73
73265;BMP280;61493;51.008;14.088;2022-10-16T03:44:54;97709.69;;;13.79
73265;BMP280;61493;51.008;14.088;2022-10-16T03:47:19;97702.41;;;13.79
73265;BMP280;61493;51.008;14.088;2022-10-16T03:49:47;97701.25;;;13.80
73265;BMP280;61493;51.008;14.088;2022-10-16T03:52:13;97716.56;;;13.80
73265;BMP280;61493;51.008;14.088;2022-10-16T03:54:38;97712.81;;;13.77
73265;BMP280;61493;51.008;14.088;2022-10-16T03:57:04;97717.31;;;13.80
73265;BMP280;61493;51.008;14.088;2022-10-16T03:59:29;97717.63;;;13.91
73265;BMP280;61493;51.008;14.088;2022-10-16T04:01:54;97717.75;;;13.88
73265;BMP280;61493;51.008;14.088;2022-10-16T04:04:20;97715.41;;;13.99
73265;BMP280;61493;51.008;14.088;2022-10-16T04:06:45;97721.63;;;13.87
73265;BMP280;61493;51.008;14.088;2022-10-16T04:09:10;97709.84;;;13.84
73265;BMP280;61493;51.008;14.088;2022-10-16T04:11:39;97720.56;;;13.84
73265;BMP280;61493;51.008;14.088;2022-10-16T04:14:04;97719.69;;;13.87
73265;BMP280;61493;51.008;14.088;2022-10-16T04:16:29;97721.00;;;13.83
73265;BMP280;61493;51.008;14.088;2022-10-16T04:18:55;97715.66;;;13.83
73265;BMP280;61493;51.008;14.088;2022-10-16T04:21:20;97718.16;;;13.77
73265;BMP280;61493;51.008;14.088;2022-10-16T04:23:45;97720.97;;;13.74
73265;BMP280;61493;51.008;14.088;2022-10-16T04:26:11;97716.25;;;13.69
73265;BMP280;61493;51.008;14.088;2022-10-16T04:28:36;97723.25;;;13.75
73265;BMP280;61493;51.008;14.088;2022-10-16T04:31:06;97721.69;;;13.65
73265;BMP280;61493;51.008;14.088;2022-10-16T04:33:34;97728.06;;;13.58
73265;BMP280;61493;51.008;14.088;2022-10-16T04:36:01;97729.41;;;13.54
73265;BMP280;61493;51.008;14.088;2022-10-16T04:38:26;97746.88;;;13.46
73265;BMP280;61493;51.008;14.088;2022-10-16T04:40:52;97743.38;;;13.58
73265;BMP280;61493;51.008;14.088;2022-10-16T04:43:17;97745.72;;;13.56
73265;BMP280;61493;51.008;14.088;2022-10-16T04:45:45;97738.72;;;13.49
73265;BMP280;61493;51.008;14.088;2022-10-16T04:48:11;97724.78;;;13.54
73265;BMP280;61493;51.008;14.088;2022-10-16T04:50:36;97722.56;;;13.53
73265;BMP280;61493;51.008;14.088;2022-10-16T04:53:05;97740.53;;;13.52
73265;BMP280;61493;51.008;14.088;2022-10-16T04:55:32;97730.06;;;13.45
73265;BMP280;61493;51.008;14.088;2022-10-16T04:57:57;97740.59;;;13.40
73265;BMP280;61493;51.008;14.088;2022-10-16T05:00:22;97744.69;;;13.53
73265;BMP280;61493;51.008;14.088;2022-10-16T05:02:50;97746.63;;;13.53
73265;BMP280;61493;51.008;14.088;2022-10-16T05:05:15;97741.69;;;13.42
73265;BMP280;61493;51.008;14.088;2022-10-16T05:07:41;97738.09;;;13.45
73265;BMP280;61493;51.008;14.088;2022-10-16T05:10:06;97747.50;;;13.50
73265;BMP280;61493;51.008;14.088;2022-10-16T05:12:34;97739.97;;;13.67
73265;BMP280;61493;51.008;14.088;2022-10-16T05:15:00;97723.94;;;13.67
73265;BMP280;61493;51.008;14.088;2022-10-16T05:17:25;97725.56;;;13.64
73265;BMP280;61493;51.008;14.088;2022-10-16T05:19:52;97716.50;;;13.61
73265;BMP280;61493;51.008;14.088;2022-10-16T05:22:18;97731.16;;;13.48
73265;BMP280;61493;51.008;14.088;2022-10-16T05:24:46;97739.22;;;13.57
73265;BMP280;61493;51.008;14.088;2022-10-16T05:27:11;97737.84;;;13.52
73265;BMP280;61493;51.008;14.088;2022-10-16T05:29:47;97736.56;;;13.57
73265;BMP280;61493;51.008;14.088;2022-10-16T05:32:13;97744.28;;;13.73
73265;BMP280;61493;51.008;14.088;2022-10-16T05:34:39;97734.19;;;13.77
73265;BMP280;61493;51.008;14.088;2022-10-16T05:37:04;97731.84;;;13.79
73265;BMP280;61493;51.008;14.088;2022-10-16T05:39:30;97742.72;;;13.94
73265;BMP280;61493;51.008;14.088;2022-10-16T05:41:55;97736.66;;;14.03
73265;BMP280;61493;51.008;14.088;2022-10-16T05:44:20;97746.75;;;13.99
73265;BMP280;61493;51.008;14.088;2022-10-16T05:46:46;97755.81;;;14.01
73265;BMP280;61493;51.008;14.088;2022-10-16T05:49:12;97758.94;;;14.00
73265;BMP280;61493;51.008;14.088;2022-10-16T05:51:40;97770.81;;;14.08
73265;BMP280;61493;51.008;14.088;2022-10-16T05:54:06;97767.69;;;14.00
73265;BMP280;61493;51.008;14.088;2022-10-16T05:56:34;97777.22;;;14.10
73265;BMP280;61493;51.008;14.088;2022-10-16T05:58:59;97775.16;;;14.05
73265;BMP280;61493;51.008;14.088;2022-10-16T06:01:25;97780.03;;;13.98
73265;BMP280;61493;51.008;14.088;2022-10-16T06:03:51;97778.69;;;13.93
73265;BMP280;61493;51.008;14.088;2022-10-16T06:06:22;97784.78;;;13.93
73265;BMP280;61493;51.008;14.088;2022-10-16T06:08:49;97790.00;;;13.97
73265;BMP280;61493;51.008;14.088;2022-10-16T06:11:17;97797.41;;;14.02
73265;BMP280;61493;51.008;14.088;2022-10-16T06:13:43;97810.50;;;14.00
73265;BMP280;61493;51.008;14.088;2022-10-16T06:16:11;97813.03;;;14.04
73265;BMP280;61493;51.008;14.088;2022-10-16T06:18:36;97820.63;;;14.05
73265;BMP280;61493;51.008;14.088;2022-10-16T06:21:07;97818.09;;;14.11
73265;BMP280;61493;51.008;14.088;2022-10-16T06:23:33;97809.66;;;14.21
73265;BMP280;61493;51.008;14.088;2022-10-16T06:26:09;97815.19;;;14.36
73265;BMP280;61493;51.008;14.088;2022-10-16T06:28:34;97808.63;;;14.46
73265;BMP280;61493;51.008;14.088;2022-10-16T06:31:01;97814.16;;;14.52
73265;BMP280;61493;51.008;14.088;2022-10-16T06:33:27;97821.63;;;14.66
73265;BMP280;61493;51.008;14.088;2022-10-16T06:35:52;97832.44;;;14.81
73265;BMP280;61493;51.008;14.088;2022-10-16T06:38:17;97829.47;;;14.88
73265;BMP280;61493;51.008;14.088;2022-10-16T06:40:43;97841.81;;;15.13
73265;BMP280;61493;51.008;14.088;2022-10-16T06:43:08;97837.47;;;15.15
73265;BMP280;61493;51.008;14.088;2022-10-16T06:45:34;97854.44;;;15.31
73265;BMP280;61493;51.008;14.088;2022-10-16T06:47:59;97864.63;;;15.50
73265;BMP280;61493;51.008;14.088;2022-10-16T06:50:24;97869.31;;;15.74
73265;BMP280;61493;51.008;14.088;2022-10-16T06:52:49;97881.44;;;16.02
73265;BMP280;61493;51.008;14.088;2022-10-16T06:55:15;97896.16;;;16.40
73265;BMP280;61493;51.008;14.088;2022-10-16T06:57:42;97900.81;;;16.93
73265;BMP280;61493;51.008;14.088;2022-10-16T07:00:08;97922.63;;;17.68
73265;BMP280;61493;51.008;14.088;2022-10-16T07:02:33;97928.22;;;17.65
73265;BMP280;61493;51.008;14.088;2022-10-16T07:04:58;97925.63;;;17.26
73265;BMP280;61493;51.008;14.088;2022-10-16T07:07:24;97914.03;;;16.67
73265;BMP280;61493;51.008;14.088;2022-10-16T07:09:52;97942.84;;;16.66
73265;BMP280;61493;51.008;14.088;2022-10-16T07:12:18;97930.31;;;16.39
73265;BMP280;61493;51.008;14.088;2022-10-16T07:14:43;97925.94;;;16.18
73265;BMP280;61493;51.008;14.088;2022-10-16T07:17:08;97930.03;;;16.37
73265;BMP280;61493;51.008;14.088;2022-10-16T07:19:34;97938.50;;;16.36
73265;BMP280;61493;51.008;14.088;2022-10-16T07:21:59;97941.19;;;16.36
73265;BMP280;61493;51.008;14.088;2022-10-16T07:24:24;97960.38;;;17.44
73265;BMP280;61493;51.008;14.088;2022-10-16T07:26:50;97969.94;;;17.60
73265;BMP280;61493;51.008;14.088;2022-10-16T07:29:20;97966.63;;;17.65
73265;BMP280;61493;51.008;14.088;2022-10-16T07:31:50;97967.19;;;17.40
73265;BMP280;61493;51.008;14.088;2022-10-16T07:34:22;97963.03;;;17.15
73265;BMP280;61493;51.008;14.088;2022-10-16T07:36:49;97967.72;;;17.29
73265;BMP280;61493;51.008;14.088;2022-10-16T07:39:14;97977.66;;;16.99
73265;BMP280;61493;51.008;14.088;2022-10-16T07:41:40;97988.78;;;16.92
73265;BMP280;61493;51.008;14.088;2022-10-16T07:44:06;97980.00;;;16.82
73265;BMP280;61493;51.008;14.088;2022-10-16T07:46:34;97983.06;;;16.75
73265;BMP280;61493;51.008;14.088;2022-10-16T07:49:01;97981.84;;;16.76
73265;BMP280;61493;51.008;14.088;2022-10-16T07:51:26;97981.69;;;16.80
73265;BMP280;61493;51.008;14.088;2022-10-16T07:53:53;97986.31;;;16.79
73265;BMP280;61493;51.008;14.088;2022-10-16T07:56:19;97983.97;;;16.72
73265;BMP280;61493;51.008;14.088;2022-10-16T07:58:45;97983.75;;;16.61
73265;BMP280;61493;51.008;14.088;2022-10-16T08:01:13;97990.00;;;16.58
73265;BMP280;61493;51.008;14.088;2022-10-16T08:03:48;97994.31;;;16.65
73265;BMP280;61493;51.008;14.088;2022-10-16T08:06:13;97986.94;;;16.74
73265;BMP280;61493;51.008;14.088;2022-10-16T08:08:39;98004.09;;;17.01
73265;BMP280;61493;51.008;14.088;2022-10-16T08:11:04;98006.47;;;16.99
73265;BMP280;61493;51.008;14.088;2022-10-16T08:13:30;98011.63;;;17.11
73265;BMP280;61493;51.008;14.088;2022-10-16T08:15:58;98021.19;;;17.12
73265;BMP280;61493;51.008;14.088;2022-10-16T08:18:30;98010.97;;;17.02
73265;BMP280;61493;51.008;14.088;2022-10-16T08:20:59;98023.75;;;17.07
73265;BMP280;61493;51.008;14.088;2022-10-16T08:23:30;98012.59;;;16.99
73265;BMP280;61493;51.008;14.088;2022-10-16T08:26:01;98014.63;;;16.89
73265;BMP280;61493;51.008;14.088;2022-10-16T08:28:27;98013.69;;;16.93
73265;BMP280;61493;51.008;14.088;2022-10-16T08:30:52;98009.00;;;16.78
73265;BMP280;61493;51.008;14.088;2022-10-16T08:33:20;98001.69;;;17.03
73265;BMP280;61493;51.008;14.088;2022-10-16T08:35:52;97991.34;;;16.86
73265;BMP280;61493;51.008;14.088;2022-10-16T08:38:18;98004.53;;;16.75
73265;BMP280;61493;51.008;14.088;2022-10-16T08:40:44;98008.66;;;16.85
73265;BMP280;61493;51.008;14.088;2022-10-16T08:48:50;98006.34;;;16.93
73265;BMP280;61493;51.008;14.088;2022-10-16T08:51:32;98019.63;;;17.20
73265;BMP280;61493;51.008;14.088;2022-10-16T08:54:05;98025.38;;;17.28
73265;BMP280;61493;51.008;14.088;2022-10-16T08:56:30;98027.41;;;17.18
73265;BMP280;61493;51.008;14.088;2022-10-16T08:58:58;98031.25;;;17.56
73265;BMP280;61493;51.008;14.088;2022-10-16T09:01:32;98041.47;;;17.67
73265;BMP280;61493;51.008;14.088;2022-10-16T09:07:13;98035.72;;;18.03
73265;BMP280;61493;51.008;14.088;2022-10-16T09:10:11;98049.41;;;18.70
73265;BMP280;61493;51.008;14.088;2022-10-16T09:15:35;98056.44;;;19.28
73265;BMP280;61493;51.008;14.088;2022-10-16T09:23:37;98056.44;;;20.06
73265;BMP280;61493;51.008;14.088;2022-10-16T09:26:03;98052.47;;;20.38
73265;BMP280;61493;51.008;14.088;2022-10-16T09:28:33;98053.94;;;20.93
73265;BMP280;61493;51.008;14.088;2022-10-16T09:30:58;98051.13;;;20.71
73265;BMP280;61493;51.008;14.088;2022-10-16T09:33:28;98051.47;;;20.36
73265;BMP280;61493;51.008;14.088;2022-10-16T09:35:56;98046.22;;;19.89
73265;BMP280;61493;51.008;14.088;2022-10-16T09:38:32;98053.50;;;20.09
73265;BMP280;61493;51.008;14.088;2022-10-16T09:41:22;98058.41;;;20.11
73265;BMP280;61493;51.008;14.088;2022-10-16T09:43:56;98068.00;;;21.02
73265;BMP280;61493;51.008;14.088;2022-10-16T09:46:33;98078.41;;;22.27
73265;BMP280;61493;51.008;14.088;2022-10-16T09:49:01;98079.91;;;21.94
73265;BMP280;61493;51.008;14.088;2022-10-16T09:51:30;98076.13;;;21.14
73265;BMP280;61493;51.008;14.088;2022-10-16T09:54:02;98072.88;;;20.08
73265;BMP280;61493;51.008;14.088;2022-10-16T09:56:33;98073.97;;;20.21
73265;BMP280;61493;51.008;14.088;2022-10-16T09:59:08;98077.72;;;19.98
73265;BMP280;61493;51.008;14.088;2022-10-16T10:02:09;98080.31;;;20.55
73265;BMP280;61493;51.008;14.088;2022-10-16T10:04:38;98093.94;;;22.09
73265;BMP280;61493;51.008;14.088;2022-10-16T10:07:04;98083.66;;;23.24
73265;BMP280;61493;51.008;14.088;2022-10-16T10:09:37;98085.28;;;23.73
73265;BMP280;61493;51.008;14.088;2022-10-16T10:12:38;98091.00;;;26.81
73265;BMP280;61493;51.008;14.088;2022-10-16T10:15:34;98093.72;;;26.47
73265;BMP280;61493;51.008;14.088;2022-10-16T10:18:32;98098.38;;;25.23
73265;BMP280;61493;51.008;14.088;2022-10-16T10:21:00;98102.25;;;25.59
73265;BMP280;61493;51.008;14.088;2022-10-16T10:23:27;98109.38;;;24.12
73265;BMP280;61493;51.008;14.088;2022-10-16T10:26:19;98097.38;;;23.72
73265;BMP280;61493;51.008;14.088;2022-10-16T10:32:17;98113.75;;;26.97
73265;BMP280;61493;51.008;14.088;2022-10-16T10:35:36;98113.75;;;25.97
73265;BMP280;61493;51.008;14.088;2022-10-16T10:42:13;98121.28;;;25.46
73265;BMP280;61493;51.008;14.088;2022-10-16T10:45:50;98122.16;;;25.03
73265;BMP280;61493;51.008;14.088;2022-10-16T10:55:59;98128.22;;;22.87
73265;BMP280;61493;51.008;14.088;2022-10-16T11:10:32;98128.66;;;29.63
73265;BMP280;61493;51.008;14.088;2022-10-16T11:13:24;98138.06;;;27.70
73265;BMP280;61493;51.008;14.088;2022-10-16T11:15:54;98136.28;;;25.53
73265;BMP280;61493;51.008;14.088;2022-10-16T11:18:59;98143.41;;;24.43
73265;BMP280;61493;51.008;14.088;2022-10-16T11:21:34;98136.97;;;23.15
73265;BMP280;61493;51.008;14.088;2022-10-16T11:24:16;98144.75;;;22.95
73265;BMP280;61493;51.008;14.088;2022-10-16T11:26:52;98151.75;;;22.51
73265;BMP280;61493;51.008;14.088;2022-10-16T11:29:27;98139.38;;;22.78
73265;BMP280;61493;51.008;14.088;2022-10-16T11:32:06;98142.91;;;22.45
73265;BMP280;61493;51.008;14.088;2022-10-16T11:34:44;98140.75;;;22.10
73265;BMP280;61493;51.008;14.088;2022-10-16T11:37:30;98141.47;;;21.83
73265;BMP280;61493;51.008;14.088;2022-10-16T11:40:11;98138.00;;;22.16
73265;BMP280;61493;51.008;14.088;2022-10-16T11:42:58;98141.22;;;22.36
73265;BMP280;61493;51.008;14.088;2022-10-16T11:45:46;98146.28;;;22.79
73265;BMP280;61493;51.008;14.088;2022-10-16T11:48:24;98138.34;;;24.04
73265;BMP280;61493;51.008;14.088;2022-10-16T11:56:20;98138.53;;;24.79
73265;BMP280;61493;51.008;14.088;2022-10-16T12:01:24;98141.22;;;23.11
73265;BMP280;61493;51.008;14.088;2022-10-16T12:06:46;98148.53;;;22.64
73265;BMP280;61493;51.008;14.088;2022-10-16T12:09:20;98146.53;;;22.70
73265;BMP280;61493;51.008;14.088;2022-10-16T12:11:47;98145.94;;;23.51
73265;BMP280;61493;51.008;14.088;2022-10-16T12:16:51;98151.63;;;22.96
73265;BMP280;61493;51.008;14.088;2022-10-16T12:19:23;98155.19;;;22.68
73265;BMP280;61493;51.008;14.088;2022-10-16T12:22:00;98155.53;;;22.15
73265;BMP280;61493;51.008;14.088;2022-10-16T12:26:55;98153.97;;;21.52
73265;BMP280;61493;51.008;14.088;2022-10-16T12:29:38;98153.47;;;21.43
73265;BMP280;61493;51.008;14.088;2022-10-16T12:32:18;98154.00;;;21.58
73265;BMP280;61493;51.008;14.088;2022-10-16T12:34:47;98152.75;;;21.48
73265;BMP280;61493;51.008;14.088;2022-10-16T12:39:56;98167.78;;;21.60
73265;BMP280;61493;51.008;14.088;2022-10-16T12:44:51;98160.41;;;21.71
73265;BMP280;61493;51.008;14.088;2022-10-16T12:47:36;98166.06;;;21.73
73265;BMP280;61493;51.008;14.088;2022-10-16T12:50:03;98168.78;;;21.79
73265;BMP280;61493;51.008;14.088;2022-10-16T12:52:37;98159.94;;;21.95
73265;BMP280;61493;51.008;14.088;2022-10-16T12:55:04;98171.47;;;21.85
73265;BMP280;61493;51.008;14.088;2022-10-16T13:00:25;98173.41;;;21.51
73265;BMP280;61493;51.008;14.088;2022-10-16T13:03:11;98185.75;;;21.68
73265;BMP280;61493;51.008;14.088;2022-10-16T13:06:12;98179.09;;;21.58
73265;BMP280;61493;51.008;14.088;2022-10-16T13:25:15;98183.06;;;22.07
73265;BMP280;61493;51.008;14.088;2022-10-16T13:28:09;98189.19;;;21.69
73265;BMP280;61493;51.008;14.088;2022-10-16T13:30:41;98174.91;;;21.68
73265;BMP280;61493;51.008;14.088;2022-10-16T13:35:48;98177.56;;;21.35
73265;BMP280;61493;51.008;14.088;2022-10-16T13:38:17;98181.72;;;21.30
73265;BMP280;61493;51.008;14.088;2022-10-16T13:41:03;98183.97;;;20.89
73265;BMP280;61493;51.008;14.088;2022-10-16T13:46:25;98192.41;;;21.02
73265;BMP280;61493;51.008;14.088;2022-10-16T13:49:03;98191.16;;;20.98
73265;BMP280;61493;51.008;14.088;2022-10-16T13:51:30;98200.47;;;20.97
73265;BMP280;61493;51.008;14.088;2022-10-16T13:53:56;98193.06;;;20.86
73265;BMP280;61493;51.008;14.088;2022-10-16T13:56:25;98197.28;;;20.56
73265;BMP280;61493;51.008;14.088;2022-10-16T13:59:06;98194.78;;;20.52
73265;BMP280;61493;51.008;14.088;2022-10-16T14:01:52;98192.69;;;20.36
73265;BMP280;61493;51.008;14.088;2022-10-16T14:04:19;98207.22;;;20.39
73265;BMP280;61493;51.008;14.088;2022-10-16T14:06:46;98195.38;;;20.05
73265;BMP280;61493;51.008;14.088;2022-10-16T14:09:22;98198.69;;;19.94
73265;BMP280;61493;51.008;14.088;2022-10-16T14:11:51;98194.56;;;19.99
73265;BMP280;61493;51.008;14.088;2022-10-16T14:14:19;98203.97;;;20.03
73265;BMP280;61493;51.008;14.088;2022-10-16T14:16:44;98196.53;;;19.98
73265;BMP280;61493;51.008;14.088;2022-10-16T14:19:28;98198.16;;;19.90
73265;BMP280;61493;51.008;14.088;2022-10-16T14:21:54;98200.50;;;19.56
73265;BMP280;61493;51.008;14.088;2022-10-16T14:24:30;98192.56;;;19.27
73265;BMP280;61493;51.008;14.088;2022-10-16T14:26:57;98199.09;;;19.20
73265;BMP280;61493;51.008;14.088;2022-10-16T14:29:24;98200.84;;;19.23
73265;BMP280;61493;51.008;14.088;2022-10-16T14:32:04;98183.66;;;18.86
73265;BMP280;61493;51.008;14.088;2022-10-16T14:34:35;98199.84;;;18.86
73265;BMP280;61493;51.008;14.088;2022-10-16T14:39:39;98200.31;;;18.84
73265;BMP280;61493;51.008;14.088;2022-10-16T14:42:14;98196.88;;;18.69
73265;BMP280;61493;51.008;14.088;2022-10-16T14:44:41;98189.44;;;18.64
73265;BMP280;61493;51.008;14.088;2022-10-16T14:47:09;98191.78;;;18.56
73265;BMP280;61493;51.008;14.088;2022-10-16T14:49:37;98193.56;;;18.45
73265;BMP280;61493;51.008;14.088;2022-10-16T14:52:08;98192.53;;;18.42
73265;BMP280;61493;51.008;14.088;2022-10-16T14:54:33;98191.59;;;18.31
73265;BMP280;61493;51.008;14.088;2022-10-16T14:56:59;98191.97;;;18.09
73265;BMP280;61493;51.008;14.088;2022-10-16T14:59:35;98198.34;;;18.11
73265;BMP280;61493;51.008;14.088;2022-10-16T15:02:23;98210.53;;;18.21
73265;BMP280;61493;51.008;14.088;2022-10-16T15:04:50;98202.47;;;18.21
73265;BMP280;61493;51.008;14.088;2022-10-16T15:07:15;98205.22;;;18.12
73265;BMP280;61493;51.008;14.088;2022-10-16T15:09:41;98201.34;;;18.13
73265;BMP280;61493;51.008;14.088;2022-10-16T15:12:06;98206.81;;;18.04
73265;BMP280;61493;51.008;14.088;2022-10-16T15:14:31;98209.50;;;18.04
73265;BMP280;61493;51.008;14.088;2022-10-16T15:16:57;98215.25;;;18.12
73265;BMP280;61493;51.008;14.088;2022-10-16T15:19:22;98221.69;;;18.14
73265;BMP280;61493;51.008;14.088;2022-10-16T15:21:48;98223.91;;;18.16
73265;BMP280;61493;51.008;14.088;2022-10-16T15:24:17;98219.00;;;18.14
73265;BMP280;61493;51.008;14.088;2022-10-16T15:26:43;98217.50;;;18.13
73265;BMP280;61493;51.008;14.088;2022-10-16T15:29:08;98216.38;;;18.05
73265;BMP280;61493;51.008;14.088;2022-10-16T15:31:36;98216.53;;;18.02
73265;BMP280;61493;51.008;14.088;2022-10-16T15:34:02;98225.28;;;17.97
73265;BMP280;61493;51.008;14.088;2022-10-16T15:36:32;98224.69;;;17.93
73265;BMP280;61493;51.008;14.088;2022-10-16T15:38:59;98223.38;;;17.88
73265;BMP280;61493;51.008;14.088;2022-10-16T15:41:25;98224.03;;;17.83
73265;BMP280;61493;51.008;14.088;2022-10-16T15:43:51;98241.66;;;17.84
73265;BMP280;61493;51.008;14.088;2022-10-16T15:46:19;98239.59;;;17.79
73265;BMP280;61493;51.008;14.088;2022-10-16T15:48:45;98242.66;;;17.72
73265;BMP280;61493;51.008;14.088;2022-10-16T15:51:11;98242.06;;;17.68
73265;BMP280;61493;51.008;14.088;2022-10-16T15:53:37;98244.94;;;17.64